sensor_id;sensor_type;location;lat;lon;timestamp;pressure;altitude;pressure_sealevel;temperature;humidity
56006;BME280;41888;44.696;10.522;2023-08-06T00:00:55;99476.53;;;17.90;100.00
56006;BME280;41888;44.696;10.522;2023-08-06T00:03:21;99474.16;;;17.73;100.00
56006;BME280;41888;44.696;10.522;2023-08-06T00:05:47;99471.25;;;17.65;100.00
56006;BME280;41888;44.696;10.522;2023-08-06T00:08:14;99473.13;;;17.64;100.00
56006;BME280;41888;44.696;10.522;2023-08-06T00:10:40;99471.53;;;17.43;100.00
56006;BME280;41888;44.696;10.522;2023-08-06T00:13:07;99472.03;;;17.45;100.00
56006;BME280;41888;44.696;10.522;2023-08-06T00:15:33;99472.81;;;17.56;100.00
56006;BME280;41888;44.696;10.522;2023-08-06T00:17:59;99471.25;;;17.60;100.00
56006;BME280;41888;44.696;10.522;2023-08-06T00:20:26;99463.97;;;17.55;100.00
56006;BME280;41888;44.696;10.522;2023-08-06T00:22:52;99460.50;;;17.40;100.00
56006;BME280;41888;44.696;10.522;2023-08-06T00:25:18;99461.31;;;17.35;100.00
56006;BME280;41888;44.696;10.522;2023-08-06T00:27:45;99462.13;;;17.36;100.00
56006;BME280;41888;44.696;10.522;2023-08-06T00:30:11;99458.84;;;17.69;100.00
56006;BME280;41888;44.696;10.522;2023-08-06T00:32:37;99461.56;;;17.64;100.00
56006;BME280;41888;44.696;10.522;2023-08-06T00:35:04;99458.09;;;17.43;100.00
56006;BME280;41888;44.696;10.522;2023-08-06T00:37:31;99456.47;;;17.37;100.00
56006;BME280;41888;44.696;10.522;2023-08-06T00:39:57;99454.88;;;17.26;100.00
56006;BME280;41888;44.696;10.522;2023-08-06T00:42:23;99464.31;;;17.28;100.00
56006;BME280;41888;44.696;10.522;2023-08-06T00:44:49;99456.72;;;17.41;100.00
56006;BME280;41888;44.696;10.522;2023-08-06T00:47:15;99466.69;;;17.40;100.00
56006;BME280;41888;44.696;10.522;2023-08-06T00:49:42;99461.31;;;17.40;100.00
56006;BME280;41888;44.696;10.522;2023-08-06T00:52:09;99467.19;;;17.57;100.00
56006;BME280;41888;44.696;10.522;2023-08-06T00:54:35;99453.47;;;17.69;100.00
56006;BME280;41888;44.696;10.522;2023-08-06T00:57:02;99451.31;;;17.71;100.00
56006;BME280;41888;44.696;10.522;2023-08-06T00:59:30;99451.31;;;17.71;100.00
56006;BME280;41888;44.696;10.522;2023-08-06T01:01:57;99441.09;;;17.68;100.00
56006;BME280;41888;44.696;10.522;2023-08-06T01:04:24;99440.28;;;17.67;100.00
56006;BME280;41888;44.696;10.522;2023-08-06T01:09:50;99445.44;;;17.49;100.00
56006;BME280;41888;44.696;10.522;2023-08-06T01:15:11;99445.72;;;17.37;100.00
56006;BME280;41888;44.696;10.522;2023-08-06T01:17:42;99438.22;;;17.39;100.00
56006;BME280;41888;44.696;10.522;2023-08-06T01:20:09;99447.63;;;17.31;100.00
56006;BME280;41888;44.696;10.522;2023-08-06T01:22:35;99438.75;;;17.36;100.00
56006;BME280;41888;44.696;10.522;2023-08-06T01:25:02;99446.56;;;17.33;100.00
56006;BME280;41888;44.696;10.522;2023-08-06T01:27:47;99443.88;;;17.33;100.00
56006;BME280;41888;44.696;10.522;2023-08-06T01:30:18;99441.44;;;17.31;100.00
56006;BME280;41888;44.696;10.522;2023-08-06T01:32:50;99451.66;;;17.34;100.00
56006;BME280;41888;44.696;10.522;2023-08-06T01:35:19;99443.88;;;17.22;100.00
56006;BME280;41888;44.696;10.522;2023-08-06T01:37:48;99442.81;;;17.28;100.00
56006;BME280;41888;44.696;10.522;2023-08-06T01:40:14;99440.91;;;17.29;100.00
56006;BME280;41888;44.696;10.522;2023-08-06T01:42:41;99430.69;;;17.31;100.00
56006;BME280;41888;44.696;10.522;2023-08-06T01:45:08;99442.50;;;17.35;100.00
56006;BME280;41888;44.696;10.522;2023-08-06T01:47:35;99434.22;;;17.21;100.00
56006;BME280;41888;44.696;10.522;2023-08-06T01:50:01;99429.38;;;17.13;100.00
56006;BME280;41888;44.696;10.522;2023-08-06T01:52:28;99425.06;;;17.27;100.00
56006;BME280;41888;44.696;10.522;2023-08-06T01:54:55;99434.19;;;17.26;100.00
56006;BME280;41888;44.696;10.522;2023-08-06T01:57:21;99437.66;;;17.37;100.00
56006;BME280;41888;44.696;10.522;2023-08-06T01:59:47;99427.16;;;17.46;100.00
56006;BME280;41888;44.696;10.522;2023-08-06T02:02:13;99427.94;;;17.51;100.00
56006;BME280;41888;44.696;10.522;2023-08-06T02:04:40;99428.22;;;17.60;100.00
56006;BME280;41888;44.696;10.522;2023-08-06T02:07:06;99424.44;;;17.51;100.00
56006;BME280;41888;44.696;10.522;2023-08-06T02:09:32;99419.84;;;17.56;100.00
56006;BME280;41888;44.696;10.522;2023-08-06T02:11:58;99422.84;;;17.60;100.00
56006;BME280;41888;44.696;10.522;2023-08-06T02:14:24;99409.94;;;17.42;100.00
56006;BME280;41888;44.696;10.522;2023-08-06T02:16:51;99405.66;;;17.36;100.00
56006;BME280;41888;44.696;10.522;2023-08-06T02:19:17;99404.59;;;17.31;100.00
56006;BME280;41888;44.696;10.522;2023-08-06T02:21:43;99410.25;;;17.25;100.00
56006;BME280;41888;44.696;10.522;2023-08-06T02:24:09;99407.88;;;17.13;100.00
56006;BME280;41888;44.696;10.522;2023-08-06T02:26:35;99403.28;;;17.34;100.00
56006;BME280;41888;44.696;10.522;2023-08-06T02:29:02;99396.28;;;17.33;100.00
56006;BME280;41888;44.696;10.522;2023-08-06T02:31:28;99400.34;;;17.10;100.00
56006;BME280;41888;44.696;10.522;2023-08-06T02:33:54;99395.53;;;17.12;100.00
56006;BME280;41888;44.696;10.522;2023-08-06T02:36:20;99392.28;;;17.10;100.00
56006;BME280;41888;44.696;10.522;2023-08-06T02:38:47;99394.47;;;16.93;100.00
56006;BME280;41888;44.696;10.522;2023-08-06T02:41:13;99399.31;;;17.06;100.00
56006;BME280;41888;44.696;10.522;2023-08-06T02:43:39;99390.16;;;17.12;100.00
56006;BME280;41888;44.696;10.522;2023-08-06T02:46:05;99398.78;;;16.94;100.00
56006;BME280;41888;44.696;10.522;2023-08-06T02:48:31;99394.19;;;17.00;100.00
56006;BME280;41888;44.696;10.522;2023-08-06T02:50:59;99389.06;;;17.13;100.00
56006;BME280;41888;44.696;10.522;2023-08-06T02:53:25;99387.97;;;17.14;100.00
56006;BME280;41888;44.696;10.522;2023-08-06T02:55:51;99378.28;;;17.18;100.00
56006;BME280;41888;44.696;10.522;2023-08-06T02:58:18;99394.44;;;17.23;100.00
56006;BME280;41888;44.696;10.522;2023-08-06T03:01:08;99389.56;;;17.30;100.00
56006;BME280;41888;44.696;10.522;2023-08-06T03:03:34;99387.69;;;17.21;100.00
56006;BME280;41888;44.696;10.522;2023-08-06T03:06:01;99392.22;;;17.36;100.00
56006;BME280;41888;44.696;10.522;2023-08-06T03:08:27;99388.75;;;17.30;100.00
56006;BME280;41888;44.696;10.522;2023-08-06T03:10:54;99384.22;;;17.15;100.00
56006;BME280;41888;44.696;10.522;2023-08-06T03:13:20;99376.16;;;17.15;100.00
56006;BME280;41888;44.696;10.522;2023-08-06T03:15:54;99365.09;;;17.27;100.00
56006;BME280;41888;44.696;10.522;2023-08-06T03:18:20;99366.19;;;17.21;100.00
56006;BME280;41888;44.696;10.522;2023-08-06T03:20:47;99368.66;;;17.07;100.00
56006;BME280;41888;44.696;10.522;2023-08-06T03:23:13;99369.47;;;17.03;100.00
56006;BME280;41888;44.696;10.522;2023-08-06T03:25:40;99375.91;;;17.12;100.00
56006;BME280;41888;44.696;10.522;2023-08-06T03:28:06;99374.31;;;17.06;100.00
56006;BME280;41888;44.696;10.522;2023-08-06T03:30:32;99375.63;;;17.03;100.00
56006;BME280;41888;44.696;10.522;2023-08-06T03:32:58;99381.53;;;17.10;100.00
56006;BME280;41888;44.696;10.522;2023-08-06T03:35:24;99379.09;;;17.19;100.00
56006;BME280;41888;44.696;10.522;2023-08-06T03:37:50;99375.31;;;17.30;100.00
56006;BME280;41888;44.696;10.522;2023-08-06T03:40:17;99378.78;;;17.36;100.00
56006;BME280;41888;44.696;10.522;2023-08-06T03:42:43;99379.31;;;17.38;100.00
56006;BME280;41888;44.696;10.522;2023-08-06T03:45:09;99379.84;;;17.45;100.00
56006;BME280;41888;44.696;10.522;2023-08-06T03:47:35;99386.25;;;17.54;100.00
56006;BME280;41888;44.696;10.522;2023-08-06T03:50:02;99391.06;;;17.57;100.00
56006;BME280;41888;44.696;10.522;2023-08-06T03:52:28;99388.94;;;17.54;100.00
56006;BME280;41888;44.696;10.522;2023-08-06T03:54:54;99387.34;;;17.48;100.00
56006;BME280;41888;44.696;10.522;2023-08-06T03:57:20;99386.81;;;17.46;100.00
56006;BME280;41888;44.696;10.522;2023-08-06T03:59:46;99390.28;;;17.51;100.00
56006;BME280;41888;44.696;10.522;2023-08-06T04:02:13;99388.41;;;17.52;100.00
56006;BME280;41888;44.696;10.522;2023-08-06T04:04:39;99384.06;;;17.56;100.00
56006;BME280;41888;44.696;10.522;2023-08-06T04:07:05;99381.94;;;17.58;100.00
56006;BME280;41888;44.696;10.522;2023-08-06T04:09:31;99391.03;;;17.72;100.00
56006;BME280;41888;44.696;10.522;2023-08-06T04:11:59;99378.16;;;17.64;100.00
56006;BME280;41888;44.696;10.522;2023-08-06T04:14:27;99376.31;;;17.54;100.00
56006;BME280;41888;44.696;10.522;2023-08-06T04:16:53;99385.44;;;17.53;100.00
56006;BME280;41888;44.696;10.522;2023-08-06T04:19:19;99387.88;;;17.55;100.00
56006;BME280;41888;44.696;10.522;2023-08-06T04:21:46;99384.38;;;17.54;100.00
56006;BME280;41888;44.696;10.522;2023-08-06T04:24:12;99382.50;;;17.55;100.00
56006;BME280;41888;44.696;10.522;2023-08-06T04:26:38;99376.81;;;17.61;100.00
56006;BME280;41888;44.696;10.522;2023-08-06T04:29:04;99382.69;;;17.73;100.00
56006;BME280;41888;44.696;10.522;2023-08-06T04:31:30;99378.06;;;17.84;100.00
56006;BME280;41888;44.696;10.522;2023-08-06T04:33:56;99382.31;;;17.95;100.00
56006;BME280;41888;44.696;10.522;2023-08-06T04:36:23;99373.59;;;18.08;100.00
56006;BME280;41888;44.696;10.522;2023-08-06T04:38:49;99379.50;;;18.10;100.00
56006;BME280;41888;44.696;10.522;2023-08-06T04:41:15;99375.25;;;18.04;100.00
56006;BME280;41888;44.696;10.522;2023-08-06T04:43:41;99387.38;;;18.02;100.00
56006;BME280;41888;44.696;10.522;2023-08-06T04:46:07;99386.56;;;18.01;100.00
56006;BME280;41888;44.696;10.522;2023-08-06T04:48:33;99379.88;;;17.94;100.00
56006;BME280;41888;44.696;10.522;2023-08-06T04:51:00;99379.59;;;18.00;100.00
56006;BME280;41888;44.696;10.522;2023-08-06T04:53:26;99369.34;;;18.02;100.00
56006;BME280;41888;44.696;10.522;2023-08-06T04:55:52;99371.09;;;18.22;100.00
56006;BME280;41888;44.696;10.522;2023-08-06T04:58:18;99371.16;;;18.46;100.00
56006;BME280;41888;44.696;10.522;2023-08-06T05:00:45;99360.97;;;18.77;100.00
56006;BME280;41888;44.696;10.522;2023-08-06T05:03:11;99370.13;;;19.05;100.00
56006;BME280;41888;44.696;10.522;2023-08-06T05:05:39;99372.09;;;19.23;100.00
56006;BME280;41888;44.696;10.522;2023-08-06T05:08:05;99375.97;;;20.02;100.00
56006;BME280;41888;44.696;10.522;2023-08-06T05:10:31;99373.66;;;20.65;100.00
56006;BME280;41888;44.696;10.522;2023-08-06T05:12:58;99376.47;;;21.20;100.00
56006;BME280;41888;44.696;10.522;2023-08-06T05:15:24;99375.84;;;21.64;97.64
56006;BME280;41888;44.696;10.522;2023-08-06T05:17:51;99374.50;;;22.02;93.03
56006;BME280;41888;44.696;10.522;2023-08-06T05:20:17;99378.25;;;22.73;88.26
56006;BME280;41888;44.696;10.522;2023-08-06T05:22:44;99380.56;;;22.88;86.82
56006;BME280;41888;44.696;10.522;2023-08-06T05:25:13;99373.44;;;23.01;84.70
56006;BME280;41888;44.696;10.522;2023-08-06T05:27:39;99373.75;;;23.30;82.26
56006;BME280;41888;44.696;10.522;2023-08-06T05:30:06;99383.75;;;23.69;80.00
56006;BME280;41888;44.696;10.522;2023-08-06T05:32:32;99383.88;;;24.21;75.85
56006;BME280;41888;44.696;10.522;2023-08-06T05:34:59;99374.81;;;24.80;73.23
56006;BME280;41888;44.696;10.522;2023-08-06T05:37:25;99380.75;;;24.82;72.00
56006;BME280;41888;44.696;10.522;2023-08-06T05:39:51;99380.50;;;25.13;71.40
56006;BME280;41888;44.696;10.522;2023-08-06T05:42:17;99384.06;;;26.43;63.79
56006;BME280;41888;44.696;10.522;2023-08-06T05:44:43;99385.81;;;26.93;58.98
56006;BME280;41888;44.696;10.522;2023-08-06T05:47:09;99382.25;;;27.38;57.77
56006;BME280;41888;44.696;10.522;2023-08-06T05:49:36;99384.47;;;26.66;58.42
56006;BME280;41888;44.696;10.522;2023-08-06T05:52:02;99390.19;;;27.18;55.39
56006;BME280;41888;44.696;10.522;2023-08-06T05:54:32;99381.34;;;27.21;55.72
56006;BME280;41888;44.696;10.522;2023-08-06T05:56:58;99375.34;;;26.29;56.84
56006;BME280;41888;44.696;10.522;2023-08-06T05:59:24;99381.88;;;26.16;57.47
56006;BME280;41888;44.696;10.522;2023-08-06T06:01:50;99378.31;;;26.90;55.44
56006;BME280;41888;44.696;10.522;2023-08-06T06:04:16;99382.94;;;27.47;52.80
56006;BME280;41888;44.696;10.522;2023-08-06T06:06:42;99384.72;;;27.18;54.05
56006;BME280;41888;44.696;10.522;2023-08-06T06:09:09;99394.56;;;28.60;50.43
56006;BME280;41888;44.696;10.522;2023-08-06T06:11:35;99398.84;;;29.48;46.97
56006;BME280;41888;44.696;10.522;2023-08-06T06:14:01;99409.19;;;30.05;46.04
56006;BME280;41888;44.696;10.522;2023-08-06T06:16:28;99420.69;;;31.79;42.49
56006;BME280;41888;44.696;10.522;2023-08-06T06:18:54;99433.53;;;32.87;39.20
56006;BME280;41888;44.696;10.522;2023-08-06T06:21:20;99438.84;;;33.06;38.75
56006;BME280;41888;44.696;10.522;2023-08-06T06:23:47;99442.03;;;31.63;43.26
56006;BME280;41888;44.696;10.522;2023-08-06T06:26:13;99435.13;;;30.46;47.42
56006;BME280;41888;44.696;10.522;2023-08-06T06:28:39;99442.34;;;29.34;52.71
56006;BME280;41888;44.696;10.522;2023-08-06T06:31:05;99446.44;;;28.96;55.04
56006;BME280;41888;44.696;10.522;2023-08-06T06:33:31;99451.63;;;28.86;55.12
56006;BME280;41888;44.696;10.522;2023-08-06T06:35:58;99457.56;;;28.48;55.45
56006;BME280;41888;44.696;10.522;2023-08-06T06:38:24;99449.97;;;28.05;57.47
56006;BME280;41888;44.696;10.522;2023-08-06T06:40:57;99448.81;;;26.88;67.52
56006;BME280;41888;44.696;10.522;2023-08-06T06:43:24;99447.25;;;25.75;78.99
56006;BME280;41888;44.696;10.522;2023-08-06T06:45:57;99447.34;;;25.40;81.22
56006;BME280;41888;44.696;10.522;2023-08-06T06:48:28;99450.47;;;25.21;82.02
56006;BME280;41888;44.696;10.522;2023-08-06T06:50:55;99454.44;;;25.24;80.34
56006;BME280;41888;44.696;10.522;2023-08-06T06:53:22;99447.84;;;25.42;81.38
56006;BME280;41888;44.696;10.522;2023-08-06T06:55:55;99454.03;;;24.70;89.60
56006;BME280;41888;44.696;10.522;2023-08-06T06:58:22;99454.88;;;24.36;93.92
56006;BME280;41888;44.696;10.522;2023-08-06T07:00:48;99451.81;;;24.29;94.57
56006;BME280;41888;44.696;10.522;2023-08-06T07:03:15;99444.16;;;24.31;95.23
56006;BME280;41888;44.696;10.522;2023-08-06T07:05:44;99446.53;;;24.33;93.97
56006;BME280;41888;44.696;10.522;2023-08-06T07:08:10;99446.38;;;24.21;92.73
56006;BME280;41888;44.696;10.522;2023-08-06T07:10:37;99446.53;;;24.50;91.94
56006;BME280;41888;44.696;10.522;2023-08-06T07:13:04;99441.59;;;24.52;91.47
56006;BME280;41888;44.696;10.522;2023-08-06T07:15:30;99448.44;;;24.93;89.39
56006;BME280;41888;44.696;10.522;2023-08-06T07:17:56;99450.38;;;24.83;91.42
56006;BME280;41888;44.696;10.522;2023-08-06T07:20:22;99443.03;;;24.67;90.28
56006;BME280;41888;44.696;10.522;2023-08-06T07:22:48;99444.13;;;24.66;89.66
56006;BME280;41888;44.696;10.522;2023-08-06T07:25:18;99437.09;;;24.65;90.68
56006;BME280;41888;44.696;10.522;2023-08-06T07:27:45;99441.22;;;24.97;90.45
56006;BME280;41888;44.696;10.522;2023-08-06T07:30:11;99446.28;;;25.24;88.37
56006;BME280;41888;44.696;10.522;2023-08-06T07:32:37;99438.59;;;25.26;87.14
56006;BME280;41888;44.696;10.522;2023-08-06T07:35:04;99448.81;;;25.38;85.98
56006;BME280;41888;44.696;10.522;2023-08-06T07:37:30;99452.44;;;25.59;84.63
56006;BME280;41888;44.696;10.522;2023-08-06T07:39:56;99447.25;;;25.75;83.02
56006;BME280;41888;44.696;10.522;2023-08-06T07:42:23;99454.38;;;25.88;80.27
56006;BME280;41888;44.696;10.522;2023-08-06T07:44:57;99461.31;;;26.06;79.37
56006;BME280;41888;44.696;10.522;2023-08-06T07:47:24;99458.69;;;25.89;79.55
56006;BME280;41888;44.696;10.522;2023-08-06T07:49:50;99469.50;;;26.06;79.07
56006;BME280;41888;44.696;10.522;2023-08-06T07:52:19;99468.94;;;26.13;76.03
56006;BME280;41888;44.696;10.522;2023-08-06T07:54:48;99466.16;;;26.30;76.29
56006;BME280;41888;44.696;10.522;2023-08-06T07:57:15;99459.34;;;26.57;76.66
56006;BME280;41888;44.696;10.522;2023-08-06T07:59:41;99464.94;;;26.60;75.78
56006;BME280;41888;44.696;10.522;2023-08-06T08:02:07;99459.69;;;26.55;73.76
56006;BME280;41888;44.696;10.522;2023-08-06T08:04:33;99467.06;;;26.55;74.21
56006;BME280;41888;44.696;10.522;2023-08-06T08:07:00;99452.28;;;26.14;77.05
56006;BME280;41888;44.696;10.522;2023-08-06T08:09:29;99467.16;;;26.25;78.05
56006;BME280;41888;44.696;10.522;2023-08-06T08:11:55;99468.00;;;26.17;77.56
56006;BME280;41888;44.696;10.522;2023-08-06T08:14:21;99450.19;;;25.90;80.84
56006;BME280;41888;44.696;10.522;2023-08-06T08:16:47;99452.94;;;26.11;78.15
56006;BME280;41888;44.696;10.522;2023-08-06T08:19:14;99457.50;;;25.98;77.96
56006;BME280;41888;44.696;10.522;2023-08-06T08:21:40;99451.56;;;25.96;77.06
56006;BME280;41888;44.696;10.522;2023-08-06T08:24:07;99446.66;;;25.90;79.67
56006;BME280;41888;44.696;10.522;2023-08-06T08:26:34;99440.09;;;25.91;78.85
56006;BME280;41888;44.696;10.522;2023-08-06T08:29:00;99436.97;;;26.01;79.50
56006;BME280;41888;44.696;10.522;2023-08-06T08:31:26;99441.41;;;25.85;78.39
56006;BME280;41888;44.696;10.522;2023-08-06T08:33:52;99439.91;;;25.67;78.58
56006;BME280;41888;44.696;10.522;2023-08-06T08:36:19;99442.63;;;25.67;81.42
56006;BME280;41888;44.696;10.522;2023-08-06T08:38:45;99447.78;;;25.89;79.86
56006;BME280;41888;44.696;10.522;2023-08-06T08:41:11;99452.22;;;25.73;80.36
56006;BME280;41888;44.696;10.522;2023-08-06T08:43:38;99440.94;;;25.83;80.97
56006;BME280;41888;44.696;10.522;2023-08-06T08:46:07;99425.88;;;26.06;78.17
56006;BME280;41888;44.696;10.522;2023-08-06T08:48:34;99426.03;;;26.30;78.15
56006;BME280;41888;44.696;10.522;2023-08-06T08:51:01;99436.28;;;26.33;76.91
56006;BME280;41888;44.696;10.522;2023-08-06T08:53:29;99435.88;;;26.64;77.17
56006;BME280;41888;44.696;10.522;2023-08-06T08:55:56;99432.72;;;26.95;76.42
56006;BME280;41888;44.696;10.522;2023-08-06T08:58:22;99439.44;;;27.10;73.61
56006;BME280;41888;44.696;10.522;2023-08-06T09:00:52;99437.03;;;26.96;73.92
56006;BME280;41888;44.696;10.522;2023-08-06T09:03:19;99445.72;;;27.10;74.66
56006;BME280;41888;44.696;10.522;2023-08-06T09:05:49;99458.44;;;27.06;72.67
56006;BME280;41888;44.696;10.522;2023-08-06T09:08:18;99456.63;;;26.57;74.05
56006;BME280;41888;44.696;10.522;2023-08-06T09:10:49;99460.16;;;26.57;73.05
56006;BME280;41888;44.696;10.522;2023-08-06T09:13:15;99467.31;;;26.82;72.94
56006;BME280;41888;44.696;10.522;2023-08-06T09:15:42;99472.31;;;27.01;70.65
56006;BME280;41888;44.696;10.522;2023-08-06T09:18:11;99462.34;;;26.64;70.68
56006;BME280;41888;44.696;10.522;2023-08-06T09:20:38;99466.84;;;27.01;71.92
56006;BME280;41888;44.696;10.522;2023-08-06T09:23:11;99481.75;;;27.04;69.31
56006;BME280;41888;44.696;10.522;2023-08-06T09:25:40;99474.84;;;27.18;69.10
56006;BME280;41888;44.696;10.522;2023-08-06T09:28:07;99463.91;;;27.06;66.95
56006;BME280;41888;44.696;10.522;2023-08-06T09:30:37;99472.78;;;27.15;67.35
56006;BME280;41888;44.696;10.522;2023-08-06T09:33:04;99470.31;;;27.35;63.85
56006;BME280;41888;44.696;10.522;2023-08-06T09:35:36;99459.34;;;27.55;66.21
56006;BME280;41888;44.696;10.522;2023-08-06T09:38:09;99465.59;;;27.92;62.72
56006;BME280;41888;44.696;10.522;2023-08-06T09:40:36;99468.22;;;28.01;59.25
56006;BME280;41888;44.696;10.522;2023-08-06T09:43:03;99468.56;;;28.11;56.69
56006;BME280;41888;44.696;10.522;2023-08-06T09:45:35;99469.97;;;28.45;57.43
56006;BME280;41888;44.696;10.522;2023-08-06T09:48:07;99472.59;;;28.54;54.79
56006;BME280;41888;44.696;10.522;2023-08-06T09:50:36;99473.94;;;28.60;54.30
56006;BME280;41888;44.696;10.522;2023-08-06T09:53:05;99466.38;;;28.69;54.73
56006;BME280;41888;44.696;10.522;2023-08-06T09:55:33;99473.69;;;28.65;52.26
56006;BME280;41888;44.696;10.522;2023-08-06T09:58:00;99464.81;;;28.56;49.29
56006;BME280;41888;44.696;10.522;2023-08-06T10:00:29;99465.09;;;28.79;48.55
56006;BME280;41888;44.696;10.522;2023-08-06T10:03:00;99458.41;;;28.64;43.68
56006;BME280;41888;44.696;10.522;2023-08-06T10:05:27;99465.22;;;28.70;43.82
56006;BME280;41888;44.696;10.522;2023-08-06T10:07:53;99471.47;;;28.83;42.87
56006;BME280;41888;44.696;10.522;2023-08-06T10:10:21;99472.25;;;28.83;43.04
56006;BME280;41888;44.696;10.522;2023-08-06T10:12:51;99476.13;;;28.82;40.18
56006;BME280;41888;44.696;10.522;2023-08-06T10:15:24;99459.22;;;29.08;42.19
56006;BME280;41888;44.696;10.522;2023-08-06T10:17:53;99470.47;;;29.19;41.33
56006;BME280;41888;44.696;10.522;2023-08-06T10:20:24;99466.31;;;29.09;35.67
56006;BME280;41888;44.696;10.522;2023-08-06T10:23:04;99472.06;;;29.20;35.78
56006;BME280;41888;44.696;10.522;2023-08-06T10:25:31;99465.91;;;29.23;34.89
56006;BME280;41888;44.696;10.522;2023-08-06T10:27:59;99475.56;;;29.32;32.89
56006;BME280;41888;44.696;10.522;2023-08-06T10:30:33;99479.03;;;29.45;34.38
56006;BME280;41888;44.696;10.522;2023-08-06T10:33:03;99476.81;;;29.51;34.51
56006;BME280;41888;44.696;10.522;2023-08-06T10:38:03;99474.78;;;29.48;32.37
56006;BME280;41888;44.696;10.522;2023-08-06T10:40:29;99477.44;;;29.44;32.63
56006;BME280;41888;44.696;10.522;2023-08-06T10:43:00;99470.88;;;29.64;33.34
56006;BME280;41888;44.696;10.522;2023-08-06T10:45:27;99463.28;;;29.58;31.96
56006;BME280;41888;44.696;10.522;2023-08-06T10:47:56;99455.56;;;29.79;32.69
56006;BME280;41888;44.696;10.522;2023-08-06T10:50:23;99461.06;;;29.79;32.61
56006;BME280;41888;44.696;10.522;2023-08-06T10:52:50;99470.44;;;29.78;31.10
56006;BME280;41888;44.696;10.522;2023-08-06T10:55:28;99468.69;;;29.70;29.24
56006;BME280;41888;44.696;10.522;2023-08-06T10:57:55;99471.56;;;29.77;29.69
56006;BME280;41888;44.696;10.522;2023-08-06T11:00:23;99464.16;;;29.77;29.04
56006;BME280;41888;44.696;10.522;2023-08-06T11:02:51;99470.44;;;29.94;29.18
56006;BME280;41888;44.696;10.522;2023-08-06T11:05:17;99462.22;;;29.94;27.63
56006;BME280;41888;44.696;10.522;2023-08-06T11:07:44;99466.13;;;29.93;28.26
56006;BME280;41888;44.696;10.522;2023-08-06T11:10:11;99460.44;;;29.86;29.16
56006;BME280;41888;44.696;10.522;2023-08-06T11:12:39;99454.44;;;29.96;29.69
56006;BME280;41888;44.696;10.522;2023-08-06T11:15:06;99464.53;;;29.92;27.88
56006;BME280;41888;44.696;10.522;2023-08-06T11:17:33;99459.97;;;29.99;28.03
56006;BME280;41888;44.696;10.522;2023-08-06T11:20:04;99459.06;;;30.11;27.00
56006;BME280;41888;44.696;10.522;2023-08-06T11:22:31;99462.44;;;30.04;27.25
56006;BME280;41888;44.696;10.522;2023-08-06T11:24:57;99457.16;;;29.96;26.39
56006;BME280;41888;44.696;10.522;2023-08-06T11:27:26;99458.22;;;30.07;27.29
56006;BME280;41888;44.696;10.522;2023-08-06T11:29:54;99453.47;;;30.23;28.41
56006;BME280;41888;44.696;10.522;2023-08-06T11:32:20;99454.47;;;30.15;27.19
56006;BME280;41888;44.696;10.522;2023-08-06T11:34:47;99453.69;;;30.34;28.14
56006;BME280;41888;44.696;10.522;2023-08-06T11:37:16;99455.47;;;30.26;27.21
56006;BME280;41888;44.696;10.522;2023-08-06T11:39:49;99456.44;;;30.34;27.36
56006;BME280;41888;44.696;10.522;2023-08-06T11:42:16;99445.06;;;30.16;27.15
56006;BME280;41888;44.696;10.522;2023-08-06T11:44:42;99447.22;;;30.07;28.43
56006;BME280;41888;44.696;10.522;2023-08-06T11:47:14;99446.94;;;30.12;28.82
56006;BME280;41888;44.696;10.522;2023-08-06T11:49:48;99448.28;;;30.37;30.04
56006;BME280;41888;44.696;10.522;2023-08-06T11:54:47;99448.06;;;30.46;28.95
56006;BME280;41888;44.696;10.522;2023-08-06T11:57:15;99442.00;;;30.37;27.58
56006;BME280;41888;44.696;10.522;2023-08-06T11:59:44;99436.66;;;30.44;27.91
56006;BME280;41888;44.696;10.522;2023-08-06T12:02:11;99439.38;;;30.59;28.81
56006;BME280;41888;44.696;10.522;2023-08-06T12:05:04;99437.38;;;30.41;26.82
56006;BME280;41888;44.696;10.522;2023-08-06T12:07:41;99433.25;;;30.31;27.09
56006;BME280;41888;44.696;10.522;2023-08-06T12:10:08;99427.38;;;30.48;28.36
56006;BME280;41888;44.696;10.522;2023-08-06T12:12:35;99415.41;;;30.41;27.72
56006;BME280;41888;44.696;10.522;2023-08-06T12:15:03;99432.31;;;30.43;28.32
56006;BME280;41888;44.696;10.522;2023-08-06T12:17:30;99440.63;;;30.46;27.99
56006;BME280;41888;44.696;10.522;2023-08-06T12:19:56;99424.09;;;30.62;27.44
56006;BME280;41888;44.696;10.522;2023-08-06T12:22:22;99434.28;;;30.81;29.31
56006;BME280;41888;44.696;10.522;2023-08-06T12:24:48;99430.50;;;30.89;28.61
56006;BME280;41888;44.696;10.522;2023-08-06T12:27:15;99418.41;;;30.71;27.59
56006;BME280;41888;44.696;10.522;2023-08-06T12:29:44;99419.75;;;30.80;26.60
56006;BME280;41888;44.696;10.522;2023-08-06T12:32:11;99422.75;;;30.94;28.06
56006;BME280;41888;44.696;10.522;2023-08-06T12:34:41;99415.84;;;30.81;26.74
56006;BME280;41888;44.696;10.522;2023-08-06T12:37:08;99416.38;;;30.68;26.31
56006;BME280;41888;44.696;10.522;2023-08-06T12:39:36;99409.78;;;30.72;26.33
56006;BME280;41888;44.696;10.522;2023-08-06T12:42:04;99417.34;;;30.98;27.73
56006;BME280;41888;44.696;10.522;2023-08-06T12:44:30;99423.56;;;31.14;27.09
56006;BME280;41888;44.696;10.522;2023-08-06T12:46:57;99414.91;;;30.93;26.53
56006;BME280;41888;44.696;10.522;2023-08-06T12:49:24;99416.16;;;31.18;26.17
56006;BME280;41888;44.696;10.522;2023-08-06T12:51:52;99426.59;;;31.32;26.03
56006;BME280;41888;44.696;10.522;2023-08-06T12:54:19;99421.94;;;31.36;26.79
56006;BME280;41888;44.696;10.522;2023-08-06T12:56:47;99416.16;;;31.18;27.33